sensor_id;sensor_type;location;lat;lon;timestamp;P1;durP1;ratioP1;P2;durP2;ratioP2
70450;SDS011;58869;51.982;4.450;2023-04-06T00:01:10;33.83;;;33.14;;
70450;SDS011;58869;51.982;4.450;2023-04-06T00:03:36;32.76;;;31.93;;
70450;SDS011;58869;51.982;4.450;2023-04-06T00:06:02;32.07;;;31.43;;
70450;SDS011;58869;51.982;4.450;2023-04-06T00:08:28;29.62;;;29.17;;
70450;SDS011;58869;51.982;4.450;2023-04-06T00:10:54;28.61;;;28.24;;
70450;SDS011;58869;51.982;4.450;2023-04-06T00:13:19;27.79;;;27.45;;
70450;SDS011;58869;51.982;4.450;2023-04-06T00:15:45;27.65;;;27.21;;
70450;SDS011;58869;51.982;4.450;2023-04-06T00:18:10;26.80;;;26.15;;
70450;SDS011;58869;51.982;4.450;2023-04-06T00:20:36;25.65;;;25.16;;
70450;SDS011;58869;51.982;4.450;2023-04-06T00:23:02;25.79;;;25.31;;
70450;SDS011;58869;51.982;4.450;2023-04-06T00:25:27;25.67;;;25.10;;
70450;SDS011;58869;51.982;4.450;2023-04-06T00:27:53;25.30;;;24.74;;
70450;SDS011;58869;51.982;4.450;2023-04-06T00:30:18;24.71;;;24.10;;
70450;SDS011;58869;51.982;4.450;2023-04-06T00:32:44;24.01;;;23.51;;
70450;SDS011;58869;51.982;4.450;2023-04-06T00:35:10;23.84;;;23.63;;
70450;SDS011;58869;51.982;4.450;2023-04-06T00:37:35;24.04;;;23.71;;
70450;SDS011;58869;51.982;4.450;2023-04-06T00:40:01;24.38;;;24.02;;
70450;SDS011;58869;51.982;4.450;2023-04-06T00:42:27;22.91;;;22.65;;
70450;SDS011;58869;51.982;4.450;2023-04-06T00:44:53;24.08;;;23.40;;
70450;SDS011;58869;51.982;4.450;2023-04-06T00:47:20;22.97;;;22.54;;
70450;SDS011;58869;51.982;4.450;2023-04-06T00:49:47;23.58;;;23.24;;
70450;SDS011;58869;51.982;4.450;2023-04-06T00:52:13;23.10;;;22.86;;
70450;SDS011;58869;51.982;4.450;2023-04-06T00:54:38;23.40;;;23.00;;
70450;SDS011;58869;51.982;4.450;2023-04-06T00:57:04;23.45;;;22.99;;
70450;SDS011;58869;51.982;4.450;2023-04-06T00:59:30;23.45;;;22.97;;
70450;SDS011;58869;51.982;4.450;2023-04-06T01:01:56;23.32;;;22.85;;
70450;SDS011;58869;51.982;4.450;2023-04-06T01:04:21;23.28;;;22.91;;
70450;SDS011;58869;51.982;4.450;2023-04-06T01:06:48;23.01;;;22.69;;
70450;SDS011;58869;51.982;4.450;2023-04-06T01:09:14;22.84;;;22.62;;
70450;SDS011;58869;51.982;4.450;2023-04-06T01:11:40;23.35;;;22.84;;
70450;SDS011;58869;51.982;4.450;2023-04-06T01:14:06;23.41;;;23.05;;
70450;SDS011;58869;51.982;4.450;2023-04-06T01:16:34;23.29;;;22.98;;
70450;SDS011;58869;51.982;4.450;2023-04-06T01:19:00;23.19;;;22.88;;
70450;SDS011;58869;51.982;4.450;2023-04-06T01:21:25;23.26;;;22.82;;
70450;SDS011;58869;51.982;4.450;2023-04-06T01:23:51;23.14;;;22.85;;
70450;SDS011;58869;51.982;4.450;2023-04-06T01:26:17;23.59;;;23.12;;
70450;SDS011;58869;51.982;4.450;2023-04-06T01:28:42;24.74;;;24.25;;
70450;SDS011;58869;51.982;4.450;2023-04-06T01:31:09;24.11;;;23.71;;
70450;SDS011;58869;51.982;4.450;2023-04-06T01:33:36;23.29;;;23.03;;
70450;SDS011;58869;51.982;4.450;2023-04-06T01:36:03;23.13;;;22.87;;
70450;SDS011;58869;51.982;4.450;2023-04-06T01:38:29;23.91;;;23.56;;
70450;SDS011;58869;51.982;4.450;2023-04-06T01:40:54;23.83;;;23.55;;
70450;SDS011;58869;51.982;4.450;2023-04-06T01:43:20;23.58;;;23.30;;
70450;SDS011;58869;51.982;4.450;2023-04-06T01:45:46;24.21;;;23.79;;
70450;SDS011;58869;51.982;4.450;2023-04-06T01:48:11;23.78;;;23.45;;
70450;SDS011;58869;51.982;4.450;2023-04-06T01:50:37;24.41;;;24.07;;
70450;SDS011;58869;51.982;4.450;2023-04-06T01:53:04;23.77;;;23.49;;
70450;SDS011;58869;51.982;4.450;2023-04-06T01:55:29;23.99;;;23.57;;
70450;SDS011;58869;51.982;4.450;2023-04-06T01:57:55;23.82;;;23.46;;
70450;SDS011;58869;51.982;4.450;2023-04-06T02:00:20;24.91;;;24.46;;
70450;SDS011;58869;51.982;4.450;2023-04-06T02:02:46;25.24;;;24.74;;
70450;SDS011;58869;51.982;4.450;2023-04-06T02:05:12;25.41;;;24.93;;
70450;SDS011;58869;51.982;4.450;2023-04-06T02:07:37;26.89;;;26.56;;
70450;SDS011;58869;51.982;4.450;2023-04-06T02:10:03;25.49;;;25.05;;
70450;SDS011;58869;51.982;4.450;2023-04-06T02:12:28;25.91;;;25.47;;
70450;SDS011;58869;51.982;4.450;2023-04-06T02:14:54;26.20;;;25.77;;
70450;SDS011;58869;51.982;4.450;2023-04-06T02:17:20;25.85;;;25.27;;
70450;SDS011;58869;51.982;4.450;2023-04-06T02:19:45;26.20;;;25.50;;
70450;SDS011;58869;51.982;4.450;2023-04-06T02:22:11;26.80;;;26.22;;
70450;SDS011;58869;51.982;4.450;2023-04-06T02:24:36;26.50;;;26.13;;
70450;SDS011;58869;51.982;4.450;2023-04-06T02:27:02;26.97;;;26.38;;
70450;SDS011;58869;51.982;4.450;2023-04-06T02:29:27;27.41;;;26.81;;
70450;SDS011;58869;51.982;4.450;2023-04-06T02:31:53;26.36;;;25.79;;
70450;SDS011;58869;51.982;4.450;2023-04-06T02:34:18;27.31;;;26.57;;
70450;SDS011;58869;51.982;4.450;2023-04-06T02:36:44;27.27;;;26.70;;
70450;SDS011;58869;51.982;4.450;2023-04-06T02:39:10;26.34;;;25.95;;
70450;SDS011;58869;51.982;4.450;2023-04-06T02:41:36;27.76;;;27.18;;
70450;SDS011;58869;51.982;4.450;2023-04-06T02:44:02;28.11;;;27.51;;
70450;SDS011;58869;51.982;4.450;2023-04-06T02:46:28;27.33;;;26.94;;
70450;SDS011;58869;51.982;4.450;2023-04-06T02:48:53;28.10;;;27.39;;
70450;SDS011;58869;51.982;4.450;2023-04-06T02:51:19;27.67;;;27.00;;
70450;SDS011;58869;51.982;4.450;2023-04-06T02:53:48;27.27;;;26.61;;
70450;SDS011;58869;51.982;4.450;2023-04-06T02:56:13;27.42;;;26.88;;
70450;SDS011;58869;51.982;4.450;2023-04-06T02:58:38;27.72;;;27.02;;
70450;SDS011;58869;51.982;4.450;2023-04-06T03:01:04;27.35;;;26.54;;
70450;SDS011;58869;51.982;4.450;2023-04-06T03:03:29;27.48;;;26.95;;
70450;SDS011;58869;51.982;4.450;2023-04-06T03:05:56;28.71;;;27.85;;
70450;SDS011;58869;51.982;4.450;2023-04-06T03:08:23;27.74;;;27.17;;
70450;SDS011;58869;51.982;4.450;2023-04-06T03:10:50;28.08;;;27.39;;
70450;SDS011;58869;51.982;4.450;2023-04-06T03:13:15;27.21;;;26.63;;
70450;SDS011;58869;51.982;4.450;2023-04-06T03:15:41;27.45;;;26.74;;
70450;SDS011;58869;51.982;4.450;2023-04-06T03:18:06;27.73;;;27.07;;
70450;SDS011;58869;51.982;4.450;2023-04-06T03:20:33;27.16;;;26.46;;
70450;SDS011;58869;51.982;4.450;2023-04-06T03:22:58;27.92;;;26.90;;
70450;SDS011;58869;51.982;4.450;2023-04-06T03:25:24;27.29;;;26.73;;
70450;SDS011;58869;51.982;4.450;2023-04-06T03:27:49;27.04;;;26.39;;
70450;SDS011;58869;51.982;4.450;2023-04-06T03:30:15;26.57;;;26.01;;
70450;SDS011;58869;51.982;4.450;2023-04-06T03:32:43;26.80;;;26.21;;
70450;SDS011;58869;51.982;4.450;2023-04-06T03:35:08;27.28;;;26.66;;
70450;SDS011;58869;51.982;4.450;2023-04-06T03:37:37;27.58;;;26.81;;
70450;SDS011;58869;51.982;4.450;2023-04-06T03:40:02;27.28;;;26.47;;
70450;SDS011;58869;51.982;4.450;2023-04-06T03:42:31;27.33;;;26.68;;
70450;SDS011;58869;51.982;4.450;2023-04-06T03:44:58;27.88;;;27.16;;
70450;SDS011;58869;51.982;4.450;2023-04-06T03:47:23;28.16;;;27.40;;
70450;SDS011;58869;51.982;4.450;2023-04-06T03:49:49;28.88;;;28.20;;
70450;SDS011;58869;51.982;4.450;2023-04-06T03:52:14;29.82;;;28.69;;
70450;SDS011;58869;51.982;4.450;2023-04-06T03:54:40;29.45;;;28.66;;
70450;SDS011;58869;51.982;4.450;2023-04-06T03:57:05;29.45;;;28.58;;
70450;SDS011;58869;51.982;4.450;2023-04-06T03:59:32;29.37;;;28.59;;
70450;SDS011;58869;51.982;4.450;2023-04-06T04:01:57;29.80;;;28.85;;
70450;SDS011;58869;51.982;4.450;2023-04-06T04:04:23;30.78;;;29.86;;
70450;SDS011;58869;51.982;4.450;2023-04-06T04:06:48;29.83;;;29.15;;
70450;SDS011;58869;51.982;4.450;2023-04-06T04:09:14;31.15;;;30.16;;
70450;SDS011;58869;51.982;4.450;2023-04-06T04:11:39;31.57;;;30.52;;
70450;SDS011;58869;51.982;4.450;2023-04-06T04:14:05;32.28;;;31.39;;
70450;SDS011;58869;51.982;4.450;2023-04-06T04:16:30;31.94;;;31.18;;
70450;SDS011;58869;51.982;4.450;2023-04-06T04:18:56;32.27;;;31.29;;
70450;SDS011;58869;51.982;4.450;2023-04-06T04:21:23;32.99;;;32.03;;
70450;SDS011;58869;51.982;4.450;2023-04-06T04:23:48;32.69;;;31.72;;
70450;SDS011;58869;51.982;4.450;2023-04-06T04:26:14;33.47;;;32.46;;
70450;SDS011;58869;51.982;4.450;2023-04-06T04:28:40;33.10;;;31.95;;
70450;SDS011;58869;51.982;4.450;2023-04-06T04:31:05;32.34;;;31.64;;
70450;SDS011;58869;51.982;4.450;2023-04-06T04:33:31;33.05;;;32.11;;
70450;SDS011;58869;51.982;4.450;2023-04-06T04:35:59;32.88;;;32.14;;
70450;SDS011;58869;51.982;4.450;2023-04-06T04:38:27;34.13;;;33.05;;
70450;SDS011;58869;51.982;4.450;2023-04-06T04:40:53;34.36;;;33.09;;
70450;SDS011;58869;51.982;4.450;2023-04-06T04:43:18;33.30;;;32.41;;
70450;SDS011;58869;51.982;4.450;2023-04-06T04:45:44;33.43;;;32.39;;
70450;SDS011;58869;51.982;4.450;2023-04-06T04:48:16;33.80;;;32.84;;
70450;SDS011;58869;51.982;4.450;2023-04-06T04:50:42;34.50;;;33.29;;
70450;SDS011;58869;51.982;4.450;2023-04-06T04:53:07;33.40;;;32.44;;
70450;SDS011;58869;51.982;4.450;2023-04-06T04:55:34;33.70;;;32.74;;
70450;SDS011;58869;51.982;4.450;2023-04-06T04:58:00;33.48;;;32.63;;
70450;SDS011;58869;51.982;4.450;2023-04-06T05:00:25;33.32;;;32.42;;
70450;SDS011;58869;51.982;4.450;2023-04-06T05:02:51;34.03;;;33.07;;
70450;SDS011;58869;51.982;4.450;2023-04-06T05:05:16;34.32;;;33.30;;
70450;SDS011;58869;51.982;4.450;2023-04-06T05:07:42;34.15;;;33.30;;
70450;SDS011;58869;51.982;4.450;2023-04-06T05:10:07;34.68;;;33.72;;
70450;SDS011;58869;51.982;4.450;2023-04-06T05:12:33;35.15;;;33.96;;
70450;SDS011;58869;51.982;4.450;2023-04-06T05:14:58;36.18;;;35.08;;
70450;SDS011;58869;51.982;4.450;2023-04-06T05:17:24;35.42;;;34.40;;
70450;SDS011;58869;51.982;4.450;2023-04-06T05:19:50;35.26;;;34.13;;
70450;SDS011;58869;51.982;4.450;2023-04-06T05:22:16;35.74;;;34.98;;
70450;SDS011;58869;51.982;4.450;2023-04-06T05:24:42;36.98;;;35.70;;
70450;SDS011;58869;51.982;4.450;2023-04-06T05:27:08;37.23;;;35.99;;
70450;SDS011;58869;51.982;4.450;2023-04-06T05:29:34;37.99;;;36.59;;
70450;SDS011;58869;51.982;4.450;2023-04-06T05:32:00;37.78;;;36.50;;
70450;SDS011;58869;51.982;4.450;2023-04-06T05:34:26;38.58;;;37.20;;
70450;SDS011;58869;51.982;4.450;2023-04-06T05:36:52;38.58;;;37.08;;
70450;SDS011;58869;51.982;4.450;2023-04-06T05:39:17;37.93;;;36.73;;
70450;SDS011;58869;51.982;4.450;2023-04-06T05:41:43;37.23;;;36.19;;
70450;SDS011;58869;51.982;4.450;2023-04-06T05:44:08;37.92;;;36.75;;
70450;SDS011;58869;51.982;4.450;2023-04-06T05:46:34;38.82;;;37.17;;
70450;SDS011;58869;51.982;4.450;2023-04-06T05:48:59;39.52;;;37.94;;
70450;SDS011;58869;51.982;4.450;2023-04-06T05:51:25;38.73;;;37.56;;
70450;SDS011;58869;51.982;4.450;2023-04-06T05:53:52;40.04;;;38.52;;
70450;SDS011;58869;51.982;4.450;2023-04-06T05:56:17;40.39;;;39.02;;
70450;SDS011;58869;51.982;4.450;2023-04-06T05:58:43;40.56;;;39.13;;
70450;SDS011;58869;51.982;4.450;2023-04-06T06:01:08;40.96;;;39.56;;
70450;SDS011;58869;51.982;4.450;2023-04-06T06:03:34;41.63;;;40.14;;
70450;SDS011;58869;51.982;4.450;2023-04-06T06:06:01;41.48;;;40.03;;
70450;SDS011;58869;51.982;4.450;2023-04-06T06:08:27;41.48;;;40.18;;
70450;SDS011;58869;51.982;4.450;2023-04-06T06:10:53;41.81;;;40.52;;
70450;SDS011;58869;51.982;4.450;2023-04-06T06:13:18;42.82;;;41.33;;
70450;SDS011;58869;51.982;4.450;2023-04-06T06:15:44;43.19;;;41.45;;
70450;SDS011;58869;51.982;4.450;2023-04-06T06:18:10;43.62;;;41.62;;
70450;SDS011;58869;51.982;4.450;2023-04-06T06:20:36;41.65;;;40.25;;
70450;SDS011;58869;51.982;4.450;2023-04-06T06:23:01;41.97;;;40.30;;
70450;SDS011;58869;51.982;4.450;2023-04-06T06:25:26;42.72;;;41.03;;
70450;SDS011;58869;51.982;4.450;2023-04-06T06:27:52;42.63;;;41.29;;
70450;SDS011;58869;51.982;4.450;2023-04-06T06:30:17;42.80;;;41.49;;
70450;SDS011;58869;51.982;4.450;2023-04-06T06:32:43;42.23;;;40.77;;
70450;SDS011;58869;51.982;4.450;2023-04-06T06:35:08;42.67;;;41.23;;
70450;SDS011;58869;51.982;4.450;2023-04-06T06:37:34;42.21;;;40.74;;
70450;SDS011;58869;51.982;4.450;2023-04-06T06:39:59;42.09;;;40.69;;
70450;SDS011;58869;51.982;4.450;2023-04-06T06:42:25;42.48;;;41.01;;
70450;SDS011;58869;51.982;4.450;2023-04-06T06:44:52;42.36;;;40.86;;
70450;SDS011;58869;51.982;4.450;2023-04-06T06:47:19;43.33;;;41.61;;
70450;SDS011;58869;51.982;4.450;2023-04-06T06:49:44;42.63;;;41.36;;
70450;SDS011;58869;51.982;4.450;2023-04-06T06:52:10;43.72;;;42.12;;
70450;SDS011;58869;51.982;4.450;2023-04-06T06:54:35;42.94;;;41.62;;
70450;SDS011;58869;51.982;4.450;2023-04-06T06:57:01;43.77;;;42.02;;
70450;SDS011;58869;51.982;4.450;2023-04-06T06:59:28;42.63;;;41.28;;
70450;SDS011;58869;51.982;4.450;2023-04-06T07:01:54;42.85;;;41.35;;
70450;SDS011;58869;51.982;4.450;2023-04-06T07:04:19;42.94;;;41.48;;
70450;SDS011;58869;51.982;4.450;2023-04-06T07:06:45;44.53;;;43.22;;
70450;SDS011;58869;51.982;4.450;2023-04-06T07:09:10;44.32;;;42.90;;
70450;SDS011;58869;51.982;4.450;2023-04-06T07:11:36;44.73;;;43.20;;
70450;SDS011;58869;51.982;4.450;2023-04-06T07:14:01;43.92;;;42.72;;
70450;SDS011;58869;51.982;4.450;2023-04-06T07:16:27;43.45;;;42.19;;
70450;SDS011;58869;51.982;4.450;2023-04-06T07:18:52;42.45;;;41.10;;
70450;SDS011;58869;51.982;4.450;2023-04-06T07:21:17;39.11;;;37.67;;
70450;SDS011;58869;51.982;4.450;2023-04-06T07:23:43;36.54;;;35.49;;
70450;SDS011;58869;51.982;4.450;2023-04-06T07:26:09;37.68;;;36.64;;
70450;SDS011;58869;51.982;4.450;2023-04-06T07:28:34;37.84;;;36.95;;
70450;SDS011;58869;51.982;4.450;2023-04-06T07:31:00;36.89;;;36.09;;
70450;SDS011;58869;51.982;4.450;2023-04-06T07:33:25;37.01;;;36.15;;
70450;SDS011;58869;51.982;4.450;2023-04-06T07:35:55;36.61;;;35.77;;
70450;SDS011;58869;51.982;4.450;2023-04-06T07:38:21;37.54;;;36.65;;
70450;SDS011;58869;51.982;4.450;2023-04-06T07:40:46;37.98;;;36.92;;
70450;SDS011;58869;51.982;4.450;2023-04-06T07:43:12;40.36;;;39.20;;
70450;SDS011;58869;51.982;4.450;2023-04-06T07:45:37;40.47;;;39.43;;
70450;SDS011;58869;51.982;4.450;2023-04-06T07:48:03;40.71;;;39.81;;
70450;SDS011;58869;51.982;4.450;2023-04-06T07:50:28;40.36;;;39.33;;
70450;SDS011;58869;51.982;4.450;2023-04-06T07:52:54;40.25;;;39.16;;
70450;SDS011;58869;51.982;4.450;2023-04-06T07:55:19;39.90;;;39.07;;
70450;SDS011;58869;51.982;4.450;2023-04-06T07:57:45;41.71;;;40.72;;
70450;SDS011;58869;51.982;4.450;2023-04-06T08:00:10;43.24;;;42.22;;
70450;SDS011;58869;51.982;4.450;2023-04-06T08:02:36;44.89;;;43.71;;
70450;SDS011;58869;51.982;4.450;2023-04-06T08:05:02;45.78;;;44.99;;
70450;SDS011;58869;51.982;4.450;2023-04-06T08:07:27;45.75;;;44.83;;
70450;SDS011;58869;51.982;4.450;2023-04-06T08:09:53;46.89;;;45.84;;
70450;SDS011;58869;51.982;4.450;2023-04-06T08:12:19;46.90;;;45.51;;
70450;SDS011;58869;51.982;4.450;2023-04-06T08:14:44;46.21;;;45.04;;
70450;SDS011;58869;51.982;4.450;2023-04-06T08:17:10;45.83;;;44.66;;
70450;SDS011;58869;51.982;4.450;2023-04-06T08:19:35;46.22;;;44.83;;
70450;SDS011;58869;51.982;4.450;2023-04-06T08:22:02;46.44;;;45.37;;
70450;SDS011;58869;51.982;4.450;2023-04-06T08:24:27;47.29;;;46.24;;
70450;SDS011;58869;51.982;4.450;2023-04-06T08:26:53;42.33;;;41.56;;
70450;SDS011;58869;51.982;4.450;2023-04-06T08:29:18;37.64;;;36.93;;
70450;SDS011;58869;51.982;4.450;2023-04-06T08:31:44;35.42;;;34.85;;
70450;SDS011;58869;51.982;4.450;2023-04-06T08:34:10;33.96;;;33.41;;
70450;SDS011;58869;51.982;4.450;2023-04-06T08:36:35;34.92;;;34.32;;
70450;SDS011;58869;51.982;4.450;2023-04-06T08:39:01;33.12;;;32.69;;
70450;SDS011;58869;51.982;4.450;2023-04-06T08:41:27;32.27;;;31.48;;
70450;SDS011;58869;51.982;4.450;2023-04-06T08:43:59;28.38;;;27.63;;
70450;SDS011;58869;51.982;4.450;2023-04-06T08:46:26;28.99;;;28.48;;
70450;SDS011;58869;51.982;4.450;2023-04-06T08:48:59;27.28;;;26.83;;
70450;SDS011;58869;51.982;4.450;2023-04-06T08:51:26;24.74;;;24.34;;
70450;SDS011;58869;51.982;4.450;2023-04-06T08:53:54;25.27;;;24.93;;
70450;SDS011;58869;51.982;4.450;2023-04-06T08:56:23;25.69;;;25.36;;
70450;SDS011;58869;51.982;4.450;2023-04-06T08:58:54;23.62;;;23.25;;
70450;SDS011;58869;51.982;4.450;2023-04-06T09:01:21;22.29;;;21.86;;
70450;SDS011;58869;51.982;4.450;2023-04-06T09:03:49;22.08;;;21.76;;
70450;SDS011;58869;51.982;4.450;2023-04-06T09:06:16;22.69;;;22.33;;
70450;SDS011;58869;51.982;4.450;2023-04-06T09:08:42;21.70;;;21.34;;
70450;SDS011;58869;51.982;4.450;2023-04-06T09:11:08;19.52;;;19.14;;
70450;SDS011;58869;51.982;4.450;2023-04-06T09:13:47;19.48;;;19.25;;
70450;SDS011;58869;51.982;4.450;2023-04-06T09:16:17;18.69;;;18.49;;
70450;SDS011;58869;51.982;4.450;2023-04-06T09:18:43;19.36;;;19.01;;
70450;SDS011;58869;51.982;4.450;2023-04-06T09:21:10;18.86;;;18.60;;
70450;SDS011;58869;51.982;4.450;2023-04-06T09:23:36;18.60;;;18.10;;
70450;SDS011;58869;51.982;4.450;2023-04-06T09:28:40;18.75;;;18.24;;
70450;SDS011;58869;51.982;4.450;2023-04-06T09:31:10;18.70;;;18.43;;
70450;SDS011;58869;51.982;4.450;2023-04-06T09:33:40;18.59;;;18.48;;
70450;SDS011;58869;51.982;4.450;2023-04-06T09:36:07;18.49;;;18.22;;
70450;SDS011;58869;51.982;4.450;2023-04-06T09:38:50;18.75;;;18.47;;
70450;SDS011;58869;51.982;4.450;2023-04-06T09:41:20;18.02;;;17.76;;
70450;SDS011;58869;51.982;4.450;2023-04-06T09:44:06;17.56;;;17.23;;
70450;SDS011;58869;51.982;4.450;2023-04-06T09:46:33;17.80;;;17.53;;
70450;SDS011;58869;51.982;4.450;2023-04-06T09:49:01;17.83;;;17.50;;
70450;SDS011;58869;51.982;4.450;2023-04-06T09:51:28;18.63;;;18.06;;
70450;SDS011;58869;51.982;4.450;2023-04-06T09:53:56;18.13;;;17.80;;
70450;SDS011;58869;51.982;4.450;2023-04-06T09:56:28;18.14;;;17.78;;
70450;SDS011;58869;51.982;4.450;2023-04-06T09:59:01;18.30;;;18.03;;
70450;SDS011;58869;51.982;4.450;2023-04-06T10:01:29;19.04;;;18.71;;
70450;SDS011;58869;51.982;4.450;2023-04-06T10:03:56;18.65;;;18.36;;
70450;SDS011;58869;51.982;4.450;2023-04-06T10:06:42;18.41;;;17.97;;
70450;SDS011;58869;51.982;4.450;2023-04-06T10:09:13;18.23;;;17.87;;
70450;SDS011;58869;51.982;4.450;2023-04-06T10:11:39;17.50;;;17.10;;
70450;SDS011;58869;51.982;4.450;2023-04-06T10:14:06;19.60;;;19.07;;
70450;SDS011;58869;51.982;4.450;2023-04-06T10:16:32;18.93;;;18.60;;
70450;SDS011;58869;51.982;4.450;2023-04-06T10:19:00;19.60;;;19.16;;
70450;SDS011;58869;51.982;4.450;2023-04-06T10:21:32;19.20;;;19.06;;
70450;SDS011;58869;51.982;4.450;2023-04-06T10:23:59;19.80;;;19.57;;
70450;SDS011;58869;51.982;4.450;2023-04-06T10:26:26;20.40;;;20.31;;
70450;SDS011;58869;51.982;4.450;2023-04-06T10:28:52;20.46;;;20.28;;
70450;SDS011;58869;51.982;4.450;2023-04-06T10:31:27;19.47;;;19.34;;
70450;SDS011;58869;51.982;4.450;2023-04-06T10:33:56;20.26;;;20.02;;
70450;SDS011;58869;51.982;4.450;2023-04-06T10:36:27;18.49;;;18.30;;
70450;SDS011;58869;51.982;4.450;2023-04-06T10:39:03;18.68;;;18.46;;
70450;SDS011;58869;51.982;4.450;2023-04-06T10:41:34;17.62;;;17.43;;
70450;SDS011;58869;51.982;4.450;2023-04-06T10:44:01;17.31;;;17.30;;
70450;SDS011;58869;51.982;4.450;2023-04-06T10:46:28;17.89;;;17.85;;
70450;SDS011;58869;51.982;4.450;2023-04-06T10:48:55;17.78;;;17.78;;
70450;SDS011;58869;51.982;4.450;2023-04-06T10:51:29;16.65;;;16.64;;
70450;SDS011;58869;51.982;4.450;2023-04-06T10:54:05;16.89;;;16.80;;
70450;SDS011;58869;51.982;4.450;2023-04-06T10:56:47;17.46;;;17.37;;
70450;SDS011;58869;51.982;4.450;2023-04-06T10:59:12;18.11;;;17.88;;
70450;SDS011;58869;51.982;4.450;2023-04-06T11:01:38;18.17;;;18.14;;
70450;SDS011;58869;51.982;4.450;2023-04-06T11:04:03;17.91;;;17.85;;
70450;SDS011;58869;51.982;4.450;2023-04-06T11:06:38;18.54;;;18.54;;
70450;SDS011;58869;51.982;4.450;2023-04-06T11:09:03;17.84;;;17.84;;
70450;SDS011;58869;51.982;4.450;2023-04-06T11:11:41;17.97;;;17.97;;
70450;SDS011;58869;51.982;4.450;2023-04-06T11:14:15;17.69;;;17.69;;
70450;SDS011;58869;51.982;4.450;2023-04-06T11:16:47;17.74;;;17.74;;
70450;SDS011;58869;51.982;4.450;2023-04-06T11:19:16;17.61;;;17.61;;
70450;SDS011;58869;51.982;4.450;2023-04-06T11:21:46;17.42;;;17.42;;
70450;SDS011;58869;51.982;4.450;2023-04-06T11:24:16;17.73;;;17.73;;
70450;SDS011;58869;51.982;4.450;2023-04-06T11:26:58;17.32;;;17.32;;
70450;SDS011;58869;51.982;4.450;2023-04-06T11:29:34;17.20;;;17.19;;
70450;SDS011;58869;51.982;4.450;2023-04-06T11:32:21;17.33;;;17.32;;
70450;SDS011;58869;51.982;4.450;2023-04-06T11:34:57;17.27;;;17.27;;
70450;SDS011;58869;51.982;4.450;2023-04-06T11:37:25;18.72;;;18.72;;
70450;SDS011;58869;51.982;4.450;2023-04-06T11:40:07;17.35;;;17.34;;
70450;SDS011;58869;51.982;4.450;2023-04-06T11:42:34;17.16;;;17.16;;
70450;SDS011;58869;51.982;4.450;2023-04-06T11:45:10;17.57;;;17.57;;
70450;SDS011;58869;51.982;4.450;2023-04-06T11:47:54;17.80;;;17.80;;
70450;SDS011;58869;51.982;4.450;2023-04-06T11:50:22;17.00;;;17.00;;
70450;SDS011;58869;51.982;4.450;2023-04-06T11:53:00;17.14;;;17.14;;
70450;SDS011;58869;51.982;4.450;2023-04-06T11:55:46;17.36;;;17.30;;
70450;SDS011;58869;51.982;4.450;2023-04-06T11:58:21;17.39;;;17.39;;
70450;SDS011;58869;51.982;4.450;2023-04-06T12:01:05;17.15;;;17.15;;
70450;SDS011;58869;51.982;4.450;2023-04-06T12:03:40;17.54;;;17.54;;
70450;SDS011;58869;51.982;4.450;2023-04-06T12:06:08;17.35;;;17.35;;
70450;SDS011;58869;51.982;4.450;2023-04-06T12:08:34;17.08;;;17.08;;
70450;SDS011;58869;51.982;4.450;2023-04-06T12:11:12;17.55;;;17.54;;
70450;SDS011;58869;51.982;4.450;2023-04-06T12:13:40;16.75;;;16.75;;
70450;SDS011;58869;51.982;4.450;2023-04-06T12:16:06;16.41;;;16.41;;
70450;SDS011;58869;51.982;4.450;2023-04-06T12:18:31;16.52;;;16.52;;
70450;SDS011;58869;51.982;4.450;2023-04-06T12:20:57;16.69;;;16.69;;
70450;SDS011;58869;51.982;4.450;2023-04-06T12:23:22;15.66;;;15.66;;
70450;SDS011;58869;51.982;4.450;2023-04-06T12:25:48;15.50;;;15.50;;
70450;SDS011;58869;51.982;4.450;2023-04-06T12:28:14;16.01;;;16.01;;
70450;SDS011;58869;51.982;4.450;2023-04-06T12:30:40;15.75;;;15.75;;
70450;SDS011;58869;51.982;4.450;2023-04-06T12:33:06;15.24;;;15.24;;
70450;SDS011;58869;51.982;4.450;2023-04-06T12:35:34;14.79;;;14.79;;
70450;SDS011;58869;51.982;4.450;2023-04-06T12:38:01;14.76;;;14.70;;
70450;SDS011;58869;51.982;4.450;2023-04-06T12:40:27;14.64;;;14.62;;
70450;SDS011;58869;51.982;4.450;2023-04-06T12:42:52;14.52;;;14.52;;
70450;SDS011;58869;51.982;4.450;2023-04-06T12:45:18;14.45;;;14.45;;
70450;SDS011;58869;51.982;4.450;2023-04-06T12:47:43;14.67;;;14.67;;
70450;SDS011;58869;51.982;4.450;2023-04-06T12:50:09;14.14;;;14.14;;
70450;SDS011;58869;51.982;4.450;2023-04-06T12:52:35;14.67;;;14.67;;
70450;SDS011;58869;51.982;4.450;2023-04-06T12:55:02;14.12;;;14.10;;
70450;SDS011;58869;51.982;4.450;2023-04-06T12:57:28;13.91;;;13.91;;
70450;SDS011;58869;51.982;4.450;2023-04-06T12:59:53;13.80;;;13.79;;
70450;SDS011;58869;51.982;4.450;2023-04-06T13:02:39;12.82;;;12.79;;
70450;SDS011;58869;51.982;4.450;2023-04-06T13:05:05;13.87;;;13.79;;
70450;SDS011;58869;51.982;4.450;2023-04-06T13:07:30;13.12;;;13.12;;
70450;SDS011;58869;51.982;4.450;2023-04-06T13:10:07;13.17;;;13.17;;
70450;SDS011;58869;51.982;4.450;2023-04-06T13:12:34;13.07;;;13.06;;
70450;SDS011;58869;51.982;4.450;2023-04-06T13:15:00;13.02;;;13.02;;
70450;SDS011;58869;51.982;4.450;2023-04-06T13:17:26;12.86;;;12.86;;
70450;SDS011;58869;51.982;4.450;2023-04-06T13:19:52;13.14;;;13.14;;
70450;SDS011;58869;51.982;4.450;2023-04-06T13:22:18;12.82;;;12.82;;
70450;SDS011;58869;51.982;4.450;2023-04-06T13:24:43;12.43;;;12.31;;
70450;SDS011;58869;51.982;4.450;2023-04-06T13:27:10;12.24;;;12.19;;
70450;SDS011;58869;51.982;4.450;2023-04-06T13:29:36;12.13;;;12.08;;
70450;SDS011;58869;51.982;4.450;2023-04-06T13:32:02;12.12;;;12.12;;
70450;SDS011;58869;51.982;4.450;2023-04-06T13:34:28;12.13;;;12.12;;
70450;SDS011;58869;51.982;4.450;2023-04-06T13:36:53;12.59;;;12.56;;
70450;SDS011;58869;51.982;4.450;2023-04-06T13:39:19;12.92;;;12.92;;
70450;SDS011;58869;51.982;4.450;2023-04-06T13:41:44;13.17;;;13.17;;
70450;SDS011;58869;51.982;4.450;2023-04-06T13:44:10;12.70;;;12.70;;
70450;SDS011;58869;51.982;4.450;2023-04-06T13:46:35;13.31;;;13.31;;
70450;SDS011;58869;51.982;4.450;2023-04-06T13:49:02;13.86;;;13.86;;
70450;SDS011;58869;51.982;4.450;2023-04-06T13:51:27;14.26;;;14.26;;
70450;SDS011;58869;51.982;4.450;2023-04-06T13:53:53;14.46;;;14.43;;
70450;SDS011;58869;51.982;4.450;2023-04-06T13:56:18;13.64;;;13.61;;
70450;SDS011;58869;51.982;4.450;2023-04-06T13:58:44;13.24;;;13.24;;
70450;SDS011;58869;51.982;4.450;2023-04-06T14:01:10;13.72;;;13.71;;
70450;SDS011;58869;51.982;4.450;2023-04-06T14:03:36;13.64;;;13.64;;
70450;SDS011;58869;51.982;4.450;2023-04-06T14:06:09;13.20;;;13.20;;
70450;SDS011;58869;51.982;4.450;2023-04-06T14:08:38;13.23;;;13.23;;
70450;SDS011;58869;51.982;4.450;2023-04-06T14:11:03;12.98;;;12.98;;
70450;SDS011;58869;51.982;4.450;2023-04-06T14:13:29;14.11;;;14.01;;
70450;SDS011;58869;51.982;4.450;2023-04-06T14:15:55;13.26;;;13.26;;
70450;SDS011;58869;51.982;4.450;2023-04-06T14:18:21;13.06;;;13.05;;
70450;SDS011;58869;51.982;4.450;2023-04-06T14:20:57;12.89;;;12.81;;
70450;SDS011;58869;51.982;4.450;2023-04-06T14:23:24;13.47;;;13.39;;